OOCL Italy — 9V7383 — position and weather

sailwx.info

Track history (hours):
 
Tides and Currents Weather Stations Pressure Air Temp Water Temp Dewpoint Dewpoint Depression Visibility Wind Speed Wind Dir Waves Ship Positions

OOCL Italy

Last reported at 2017-Dec-06 23:16 UTC. Time now 2017-Dec-15 14:09 UTC.
Position N 22°20' E 114°07'.
Warning: this ship's position is 8 days out of date.

Length 280 m; draft 10.7 m.

Type: Cargo ship. MMSI: 566748000.

Date/timePositionNaut miles runAvg speedWind from/ knotsBaromVisibWave heightAir tempDewpointWater temp
2017-Dec-06 23:16N 22°20' E 114°07'  
2017-Dec-03 18:00N 24°14' E 118°16'611.6
2017-Dec-03 17:30N 24°18' E 118°12'611.0
2017-Dec-03 17:00N 24°22' E 118°08'510.5
2017-Dec-03 16:30N 24°26' E 118°04'5 9.5
2017-Dec-03 16:00N 24°27' E 117°59'0 0.1
2017-Dec-03 13:10N 24°27' E 117°58'0 0.0
2017-Dec-03 12:52N 24°27' E 117°58'0 0.0
2017-Dec-03 12:28N 24°27' E 117°58'0 0.0
2017-Dec-03 11:49N 24°27' E 117°58'0 0.0
2017-Dec-03 11:25N 24°27' E 117°58'0 0.0
2017-Dec-03 10:55N 24°27' E 117°58'0 0.0
2017-Dec-03 10:19N 24°27' E 117°58'0 0.0
2017-Dec-03 09:43N 24°27' E 117°58'0 0.0
2017-Dec-03 06:55N 24°27' E 117°58'0 0.0
2017-Dec-03 05:04N 24°27' E 117°58'0 0.0
2017-Dec-03 04:43N 24°27' E 117°58'0 0.0
2017-Dec-03 04:19N 24°27' E 117°58'0 0.0
2017-Dec-03 03:59N 24°27' E 117°58'0 0.3
2017-Dec-03 03:30N 24°27' E 117°58'3 6.4
2017-Dec-03 03:00N 24°26' E 118°02'611.3
2017-Dec-03 02:30N 24°23' E 118°07'510.6
2017-Dec-03 02:00N 24°20' E 118°11'611.4
2017-Dec-03 01:30N 24°15' E 118°15'8116.4
2017-Dec-02 20:32N 23°28' E 119°28'118.7
2017-Dec-02 20:31N 23°28' E 119°28'918.3
2017-Dec-02 20:00N 23°24' E 119°37'917.8
2017-Dec-02 19:30N 23°18' E 119°45'1717.4
2017-Dec-02 18:32N 23°04' E 119°54'016.7
2017-Dec-02 18:30N 23°03' E 119°55'917.5
2017-Dec-02 18:01N 22°56' E 119°59'917.3
2017-Dec-02 17:30N 22°48' E 120°04'918.0
2017-Dec-02 17:00N 22°41' E 120°09'917.4
2017-Dec-02 16:30N 22°33' E 120°14'510.5
2017-Dec-02 16:00N 22°33' E 120°19'1 2.3
2017-Dec-02 15:30N 22°34' E 120°19'0 0.2
2017-Dec-02 14:59N 22°34' E 120°19'0 0.0
2017-Dec-02 14:26N 22°34' E 120°19'0 0.0
2017-Dec-02 13:59N 22°34' E 120°19'0 0.0
2017-Dec-02 13:29N 22°34' E 120°19'0 0.0
2017-Dec-02 12:59N 22°34' E 120°19'0 0.0
2017-Dec-02 12:26N 22°34' E 120°19'0 0.0
2017-Dec-02 11:59N 22°34' E 120°19'0 0.0
2017-Dec-02 11:26N 22°34' E 120°19'0 0.0
2017-Dec-02 10:53N 22°34' E 120°19'0 0.0
2017-Dec-02 10:29N 22°34' E 120°19'0 0.0
2017-Dec-02 09:59N 22°34' E 120°19'0 0.0
2017-Dec-02 09:23N 22°34' E 120°19'0 0.0
2017-Dec-02 08:59N 22°34' E 120°19'0 0.0
2017-Dec-02 08:29N 22°34' E 120°19'0 0.0
2017-Dec-02 07:56N 22°34' E 120°19'0 0.0
2017-Dec-02 07:29N 22°34' E 120°19'0 0.0
2017-Dec-02 06:59N 22°34' E 120°19'1 1.8
2017-Dec-02 06:31N 22°34' E 120°19'3 6.8
2017-Dec-02 06:01N 22°32' E 120°16'4 7.6
2017-Dec-02 05:31N 22°30' E 120°13'5 9.5
2017-Dec-02 05:01N 22°25' E 120°13'510.1
2017-Dec-02 04:30N 22°20' E 120°13'510.6
2017-Dec-02 04:00N 22°15' E 120°16'815.5
2017-Dec-02 03:28N 22°08' E 120°21'914.9
2017-Dec-02 02:52N 22°01' E 120°26'  
Track history (hours):
 
Tides and Currents Weather Stations Pressure Air Temp Water Temp Dewpoint Dewpoint Depression Visibility Wind Speed Wind Dir Waves Ship Positions

OOCL Italy

Last reported at 2017-Dec-06 23:16 UTC. Time now 2017-Dec-15 14:09 UTC.
Position N 22°20' E 114°07'.
Warning: this ship's position is 8 days out of date.

Length 280 m; draft 10.7 m.

Type: Cargo ship. MMSI: 566748000.

Date/timePositionNaut miles runAvg speedWind from/ knotsBaromVisibWave heightAir tempDewpointWater temp
2017-Dec-06 23:16N 22°20' E 114°07'  
2017-Dec-03 18:00N 24°14' E 118°16'611.6
2017-Dec-03 17:30N 24°18' E 118°12'611.0
2017-Dec-03 17:00N 24°22' E 118°08'510.5
2017-Dec-03 16:30N 24°26' E 118°04'5 9.5
2017-Dec-03 16:00N 24°27' E 117°59'0 0.1
2017-Dec-03 13:10N 24°27' E 117°58'0 0.0
2017-Dec-03 12:52N 24°27' E 117°58'0 0.0
2017-Dec-03 12:28N 24°27' E 117°58'0 0.0
2017-Dec-03 11:49N 24°27' E 117°58'0 0.0
2017-Dec-03 11:25N 24°27' E 117°58'0 0.0
2017-Dec-03 10:55N 24°27' E 117°58'0 0.0
2017-Dec-03 10:19N 24°27' E 117°58'0 0.0
2017-Dec-03 09:43N 24°27' E 117°58'0 0.0
2017-Dec-03 06:55N 24°27' E 117°58'0 0.0
2017-Dec-03 05:04N 24°27' E 117°58'0 0.0
2017-Dec-03 04:43N 24°27' E 117°58'0 0.0
2017-Dec-03 04:19N 24°27' E 117°58'0 0.0
2017-Dec-03 03:59N 24°27' E 117°58'0 0.3
2017-Dec-03 03:30N 24°27' E 117°58'3 6.4
2017-Dec-03 03:00N 24°26' E 118°02'611.3
2017-Dec-03 02:30N 24°23' E 118°07'510.6
2017-Dec-03 02:00N 24°20' E 118°11'611.4
2017-Dec-03 01:30N 24°15' E 118°15'8116.4
2017-Dec-02 20:32N 23°28' E 119°28'118.7
2017-Dec-02 20:31N 23°28' E 119°28'918.3
2017-Dec-02 20:00N 23°24' E 119°37'917.8
2017-Dec-02 19:30N 23°18' E 119°45'1717.4
2017-Dec-02 18:32N 23°04' E 119°54'016.7
2017-Dec-02 18:30N 23°03' E 119°55'917.5
2017-Dec-02 18:01N 22°56' E 119°59'917.3
2017-Dec-02 17:30N 22°48' E 120°04'918.0
2017-Dec-02 17:00N 22°41' E 120°09'917.4
2017-Dec-02 16:30N 22°33' E 120°14'510.5
2017-Dec-02 16:00N 22°33' E 120°19'1 2.3
2017-Dec-02 15:30N 22°34' E 120°19'0 0.2
2017-Dec-02 14:59N 22°34' E 120°19'0 0.0
2017-Dec-02 14:26N 22°34' E 120°19'0 0.0
2017-Dec-02 13:59N 22°34' E 120°19'0 0.0
2017-Dec-02 13:29N 22°34' E 120°19'0 0.0
2017-Dec-02 12:59N 22°34' E 120°19'0 0.0
2017-Dec-02 12:26N 22°34' E 120°19'0 0.0
2017-Dec-02 11:59N 22°34' E 120°19'0 0.0
2017-Dec-02 11:26N 22°34' E 120°19'0 0.0
2017-Dec-02 10:53N 22°34' E 120°19'0 0.0
2017-Dec-02 10:29N 22°34' E 120°19'0 0.0
2017-Dec-02 09:59N 22°34' E 120°19'0 0.0
2017-Dec-02 09:23N 22°34' E 120°19'0 0.0
2017-Dec-02 08:59N 22°34' E 120°19'0 0.0
2017-Dec-02 08:29N 22°34' E 120°19'0 0.0
2017-Dec-02 07:56N 22°34' E 120°19'0 0.0
2017-Dec-02 07:29N 22°34' E 120°19'0 0.0
2017-Dec-02 06:59N 22°34' E 120°19'1 1.8
2017-Dec-02 06:31N 22°34' E 120°19'3 6.8
2017-Dec-02 06:01N 22°32' E 120°16'4 7.6
2017-Dec-02 05:31N 22°30' E 120°13'5 9.5
2017-Dec-02 05:01N 22°25' E 120°13'510.1
2017-Dec-02 04:30N 22°20' E 120°13'510.6
2017-Dec-02 04:00N 22°15' E 120°16'815.5
2017-Dec-02 03:28N 22°08' E 120°21'914.9
2017-Dec-02 02:52N 22°01' E 120°26'  

Dump ship's entire track history